sensor_id;sensor_type;location;lat;lon;timestamp;pressure;altitude;pressure_sealevel;temperature;humidity
72157;BME280;60035;52.122;5.406;2023-04-10T00:02:22;102301.72;;;7.87;79.50
72157;BME280;60035;52.122;5.406;2023-04-10T00:04:49;102284.72;;;7.89;79.08
72157;BME280;60035;52.122;5.406;2023-04-10T00:07:16;102292.38;;;7.92;79.09
72157;BME280;60035;52.122;5.406;2023-04-10T00:09:42;102282.19;;;7.93;78.84
72157;BME280;60035;52.122;5.406;2023-04-10T00:12:09;102279.63;;;7.95;78.61
72157;BME280;60035;52.122;5.406;2023-04-10T00:14:36;102275.41;;;7.97;78.13
72157;BME280;60035;52.122;5.406;2023-04-10T00:17:03;102277.97;;;8.00;77.45
72157;BME280;60035;52.122;5.406;2023-04-10T00:19:29;102271.19;;;8.02;77.78
72157;BME280;60035;52.122;5.406;2023-04-10T00:21:56;102272.03;;;8.01;77.52
72157;BME280;60035;52.122;5.406;2023-04-10T00:24:22;102271.16;;;7.99;77.69
72157;BME280;60035;52.122;5.406;2023-04-10T00:26:49;102265.22;;;7.97;77.82
72157;BME280;60035;52.122;5.406;2023-04-10T00:29:16;102261.81;;;7.98;77.81
72157;BME280;60035;52.122;5.406;2023-04-10T00:31:42;102246.47;;;7.95;77.97
72157;BME280;60035;52.122;5.406;2023-04-10T00:34:09;102248.16;;;7.90;78.04
72157;BME280;60035;52.122;5.406;2023-04-10T00:36:35;102240.50;;;7.90;77.63
72157;BME280;60035;52.122;5.406;2023-04-10T00:39:02;102235.41;;;7.88;78.18
72157;BME280;60035;52.122;5.406;2023-04-10T00:41:28;102229.47;;;7.88;78.55
72157;BME280;60035;52.122;5.406;2023-04-10T00:43:55;102225.19;;;7.87;78.13
72157;BME280;60035;52.122;5.406;2023-04-10T00:46:23;102236.22;;;7.79;78.30
72157;BME280;60035;52.122;5.406;2023-04-10T00:48:50;102231.97;;;7.77;78.70
72157;BME280;60035;52.122;5.406;2023-04-10T00:51:17;102226.84;;;7.72;79.01
72157;BME280;60035;52.122;5.406;2023-04-10T00:53:49;102226.81;;;7.69;79.23
72157;BME280;60035;52.122;5.406;2023-04-10T00:56:18;102224.28;;;7.69;79.22
72157;BME280;60035;52.122;5.406;2023-04-10T00:58:44;102222.56;;;7.70;79.34
72157;BME280;60035;52.122;5.406;2023-04-10T01:01:10;102220.91;;;7.72;79.07
72157;BME280;60035;52.122;5.406;2023-04-10T01:03:38;102226.88;;;7.78;78.93
72157;BME280;60035;52.122;5.406;2023-04-10T01:09:39;102216.72;;;7.89;78.45
72157;BME280;60035;52.122;5.406;2023-04-10T01:20:22;102209.09;;;7.94;77.56
72157;BME280;60035;52.122;5.406;2023-04-10T01:26:47;102204.84;;;7.96;77.73
72157;BME280;60035;52.122;5.406;2023-04-10T01:29:19;102187.84;;;7.96;78.03
72157;BME280;60035;52.122;5.406;2023-04-10T01:31:53;102193.78;;;7.97;77.80
72157;BME280;60035;52.122;5.406;2023-04-10T01:34:23;102186.97;;;7.99;77.69
72157;BME280;60035;52.122;5.406;2023-04-10T01:36:59;102184.44;;;7.99;77.87
72157;BME280;60035;52.122;5.406;2023-04-10T01:39:28;102176.78;;;7.99;77.64
72157;BME280;60035;52.122;5.406;2023-04-10T01:41:57;102183.59;;;8.00;77.82
72157;BME280;60035;52.122;5.406;2023-04-10T01:44:28;102179.34;;;8.02;77.60
72157;BME280;60035;52.122;5.406;2023-04-10T01:46:55;102176.81;;;8.04;77.54
72157;BME280;60035;52.122;5.406;2023-04-10T01:49:24;102170.84;;;8.06;77.86
72157;BME280;60035;52.122;5.406;2023-04-10T01:51:52;102168.31;;;8.08;77.80
72157;BME280;60035;52.122;5.406;2023-04-10T01:54:26;102172.56;;;8.09;77.80
72157;BME280;60035;52.122;5.406;2023-04-10T01:56:53;102181.09;;;8.12;77.48
72157;BME280;60035;52.122;5.406;2023-04-10T01:59:20;102173.44;;;8.14;77.51
72157;BME280;60035;52.122;5.406;2023-04-10T02:01:47;102164.94;;;8.15;77.74
72157;BME280;60035;52.122;5.406;2023-04-10T02:04:13;102163.22;;;8.17;77.47
72157;BME280;60035;52.122;5.406;2023-04-10T02:06:50;102164.94;;;8.16;77.38
72157;BME280;60035;52.122;5.406;2023-04-10T02:09:30;102159.81;;;8.20;77.55
72157;BME280;60035;52.122;5.406;2023-04-10T02:12:04;102162.38;;;8.18;77.24
72157;BME280;60035;52.122;5.406;2023-04-10T02:14:35;102155.56;;;8.15;77.51
72157;BME280;60035;52.122;5.406;2023-04-10T02:17:02;102151.31;;;8.16;77.75
72157;BME280;60035;52.122;5.406;2023-04-10T02:19:30;102157.28;;;8.18;77.84
72157;BME280;60035;52.122;5.406;2023-04-10T02:21:58;102157.28;;;8.18;77.41
72157;BME280;60035;52.122;5.406;2023-04-10T02:24:24;102150.47;;;8.15;77.68
72157;BME280;60035;52.122;5.406;2023-04-10T02:26:51;102150.47;;;8.15;77.52
72157;BME280;60035;52.122;5.406;2023-04-10T02:29:18;102148.75;;;8.14;77.32
72157;BME280;60035;52.122;5.406;2023-04-10T02:31:45;102150.47;;;8.15;77.72
72157;BME280;60035;52.122;5.406;2023-04-10T02:34:12;102150.47;;;8.15;77.35
72157;BME280;60035;52.122;5.406;2023-04-10T02:36:39;102148.75;;;8.14;77.67
72157;BME280;60035;52.122;5.406;2023-04-10T02:39:06;102151.31;;;8.14;77.75
72157;BME280;60035;52.122;5.406;2023-04-10T02:41:33;102149.59;;;8.13;77.64
72157;BME280;60035;52.122;5.406;2023-04-10T02:43:59;102147.06;;;8.13;77.33
72157;BME280;60035;52.122;5.406;2023-04-10T02:46:27;102146.22;;;8.13;77.50
72157;BME280;60035;52.122;5.406;2023-04-10T02:48:53;102145.38;;;8.14;77.56
72157;BME280;60035;52.122;5.406;2023-04-10T02:51:20;102141.09;;;8.13;77.84
72157;BME280;60035;52.122;5.406;2023-04-10T02:53:47;102145.34;;;8.11;77.21
72157;BME280;60035;52.122;5.406;2023-04-10T02:56:13;102153.00;;;8.11;77.58
72157;BME280;60035;52.122;5.406;2023-04-10T02:58:40;102150.44;;;8.09;77.66
72157;BME280;60035;52.122;5.406;2023-04-10T03:01:11;102147.06;;;8.10;77.74
72157;BME280;60035;52.122;5.406;2023-04-10T03:03:38;102150.44;;;8.09;77.69
72157;BME280;60035;52.122;5.406;2023-04-10T03:06:05;102155.56;;;8.08;77.47
72157;BME280;60035;52.122;5.406;2023-04-10T03:08:33;102154.72;;;8.07;77.74
72157;BME280;60035;52.122;5.406;2023-04-10T03:10:59;102157.25;;;8.06;77.59
72157;BME280;60035;52.122;5.406;2023-04-10T03:13:26;102157.22;;;8.04;77.58
72157;BME280;60035;52.122;5.406;2023-04-10T03:15:52;102146.19;;;8.05;78.03
72157;BME280;60035;52.122;5.406;2023-04-10T03:18:19;102153.00;;;8.05;77.79
72157;BME280;60035;52.122;5.406;2023-04-10T03:20:45;102150.47;;;8.03;77.93
72157;BME280;60035;52.122;5.406;2023-04-10T03:23:12;102148.75;;;8.02;77.65
72157;BME280;60035;52.122;5.406;2023-04-10T03:25:38;102143.66;;;8.02;77.71
72157;BME280;60035;52.122;5.406;2023-04-10T03:28:06;102147.03;;;8.01;78.00
72157;BME280;60035;52.122;5.406;2023-04-10T03:30:32;102147.03;;;7.99;78.09
72157;BME280;60035;52.122;5.406;2023-04-10T03:33:02;102144.50;;;7.98;77.59
72157;BME280;60035;52.122;5.406;2023-04-10T03:35:28;102147.03;;;7.98;77.93
72157;BME280;60035;52.122;5.406;2023-04-10T03:37:55;102146.16;;;7.96;77.72
72157;BME280;60035;52.122;5.406;2023-04-10T03:40:21;102141.91;;;7.93;77.82
72157;BME280;60035;52.122;5.406;2023-04-10T03:42:48;102134.25;;;7.92;77.90
72157;BME280;60035;52.122;5.406;2023-04-10T03:45:14;102136.81;;;7.90;78.03
72157;BME280;60035;52.122;5.406;2023-04-10T03:47:41;102133.41;;;7.87;77.89
72157;BME280;60035;52.122;5.406;2023-04-10T03:50:07;102135.09;;;7.86;78.17
72157;BME280;60035;52.122;5.406;2023-04-10T03:52:34;102130.84;;;7.82;78.04
72157;BME280;60035;52.122;5.406;2023-04-10T03:55:01;102127.44;;;7.81;77.90
72157;BME280;60035;52.122;5.406;2023-04-10T03:57:27;102128.25;;;7.80;77.98
72157;BME280;60035;52.122;5.406;2023-04-10T03:59:54;102119.78;;;7.78;77.93
72157;BME280;60035;52.122;5.406;2023-04-10T04:02:20;102120.63;;;7.77;77.83
72157;BME280;60035;52.122;5.406;2023-04-10T04:04:47;102116.34;;;7.76;78.13
72157;BME280;60035;52.122;5.406;2023-04-10T04:07:14;102107.88;;;7.74;78.31
72157;BME280;60035;52.122;5.406;2023-04-10T04:09:40;102102.78;;;7.74;77.96
72157;BME280;60035;52.122;5.406;2023-04-10T04:12:06;102101.91;;;7.74;78.38
72157;BME280;60035;52.122;5.406;2023-04-10T04:14:33;102107.00;;;7.72;78.09
72157;BME280;60035;52.122;5.406;2023-04-10T04:17:00;102103.63;;;7.72;78.24
72157;BME280;60035;52.122;5.406;2023-04-10T04:19:26;102095.09;;;7.71;78.02
72157;BME280;60035;52.122;5.406;2023-04-10T04:21:53;102105.28;;;7.71;78.16
72157;BME280;60035;52.122;5.406;2023-04-10T04:24:19;102103.63;;;7.70;78.29
72157;BME280;60035;52.122;5.406;2023-04-10T04:26:47;102103.59;;;7.67;78.11
72157;BME280;60035;52.122;5.406;2023-04-10T04:29:13;102112.09;;;7.67;78.37
72157;BME280;60035;52.122;5.406;2023-04-10T04:31:40;102104.44;;;7.64;78.27
72157;BME280;60035;52.122;5.406;2023-04-10T04:34:06;102111.22;;;7.64;78.07
72157;BME280;60035;52.122;5.406;2023-04-10T04:36:32;102094.22;;;7.63;78.24
72157;BME280;60035;52.122;5.406;2023-04-10T04:38:59;102099.31;;;7.61;78.47
72157;BME280;60035;52.122;5.406;2023-04-10T04:41:25;102095.94;;;7.61;78.41
72157;BME280;60035;52.122;5.406;2023-04-10T04:43:52;102092.53;;;7.59;78.30
72157;BME280;60035;52.122;5.406;2023-04-10T04:46:21;102089.97;;;7.57;78.36
72157;BME280;60035;52.122;5.406;2023-04-10T04:48:47;102090.81;;;7.58;78.35
72157;BME280;60035;52.122;5.406;2023-04-10T04:51:14;102089.97;;;7.54;78.13
72157;BME280;60035;52.122;5.406;2023-04-10T04:53:40;102084.00;;;7.54;78.44
72157;BME280;60035;52.122;5.406;2023-04-10T04:56:07;102083.16;;;7.53;78.37
72157;BME280;60035;52.122;5.406;2023-04-10T04:58:33;102083.16;;;7.53;78.32
72157;BME280;60035;52.122;5.406;2023-04-10T05:01:00;102086.56;;;7.52;78.44
72157;BME280;60035;52.122;5.406;2023-04-10T05:03:26;102089.94;;;7.51;78.51
72157;BME280;60035;52.122;5.406;2023-04-10T05:05:56;102084.84;;;7.51;78.38
72157;BME280;60035;52.122;5.406;2023-04-10T05:08:23;102090.81;;;7.52;78.51
72157;BME280;60035;52.122;5.406;2023-04-10T05:10:49;102079.75;;;7.51;78.48
72157;BME280;60035;52.122;5.406;2023-04-10T05:13:16;102073.81;;;7.52;78.18
72157;BME280;60035;52.122;5.406;2023-04-10T05:15:43;102072.09;;;7.53;78.23
72157;BME280;60035;52.122;5.406;2023-04-10T05:18:10;102072.97;;;7.53;78.21
72157;BME280;60035;52.122;5.406;2023-04-10T05:20:37;102072.97;;;7.55;77.91
72157;BME280;60035;52.122;5.406;2023-04-10T05:23:03;102078.94;;;7.57;78.08
72157;BME280;60035;52.122;5.406;2023-04-10T05:25:30;102074.69;;;7.57;77.87
72157;BME280;60035;52.122;5.406;2023-04-10T05:27:56;102078.94;;;7.58;77.96
72157;BME280;60035;52.122;5.406;2023-04-10T05:30:23;102074.69;;;7.60;77.78
72157;BME280;60035;52.122;5.406;2023-04-10T05:32:50;102075.53;;;7.62;77.70
72157;BME280;60035;52.122;5.406;2023-04-10T05:35:16;102067.06;;;7.65;77.70
72157;BME280;60035;52.122;5.406;2023-04-10T05:37:43;102066.22;;;7.71;77.63
72157;BME280;60035;52.122;5.406;2023-04-10T05:40:09;102068.75;;;7.74;77.07
72157;BME280;60035;52.122;5.406;2023-04-10T05:42:36;102067.91;;;7.78;77.19
72157;BME280;60035;52.122;5.406;2023-04-10T05:45:02;102063.69;;;7.81;76.85
72157;BME280;60035;52.122;5.406;2023-04-10T05:47:29;102067.94;;;7.86;76.94
72157;BME280;60035;52.122;5.406;2023-04-10T05:49:55;102061.97;;;7.90;76.84
72157;BME280;60035;52.122;5.406;2023-04-10T05:52:22;102067.09;;;7.94;76.64
72157;BME280;60035;52.122;5.406;2023-04-10T05:54:48;102067.97;;;7.98;76.85
72157;BME280;60035;52.122;5.406;2023-04-10T05:57:17;102062.84;;;8.03;76.55
72157;BME280;60035;52.122;5.406;2023-04-10T05:59:43;102060.31;;;8.07;75.97
72157;BME280;60035;52.122;5.406;2023-04-10T06:02:09;102056.06;;;8.11;75.88
72157;BME280;60035;52.122;5.406;2023-04-10T06:04:37;102057.78;;;8.16;75.83
72157;BME280;60035;52.122;5.406;2023-04-10T06:07:04;102057.75;;;8.23;75.44
72157;BME280;60035;52.122;5.406;2023-04-10T06:09:30;102057.75;;;8.29;75.63
72157;BME280;60035;52.122;5.406;2023-04-10T06:11:56;102048.41;;;8.32;75.57
72157;BME280;60035;52.122;5.406;2023-04-10T06:14:23;102052.66;;;8.38;75.57
72157;BME280;60035;52.122;5.406;2023-04-10T06:16:49;102049.25;;;8.44;75.05
72157;BME280;60035;52.122;5.406;2023-04-10T06:19:16;102039.06;;;8.48;74.95
72157;BME280;60035;52.122;5.406;2023-04-10T06:21:42;102041.63;;;8.55;74.39
72157;BME280;60035;52.122;5.406;2023-04-10T06:24:09;102033.94;;;8.59;74.39
72157;BME280;60035;52.122;5.406;2023-04-10T06:26:38;102032.25;;;8.63;74.38
72157;BME280;60035;52.122;5.406;2023-04-10T06:29:04;102027.09;;;8.69;74.47
72157;BME280;60035;52.122;5.406;2023-04-10T06:31:32;102020.28;;;8.74;73.91
72157;BME280;60035;52.122;5.406;2023-04-10T06:33:58;102015.19;;;8.79;73.87
72157;BME280;60035;52.122;5.406;2023-04-10T06:36:25;102010.06;;;8.85;73.56
72157;BME280;60035;52.122;5.406;2023-04-10T06:38:52;102010.88;;;8.92;73.71
72157;BME280;60035;52.122;5.406;2023-04-10T06:41:19;102005.72;;;8.99;73.49
72157;BME280;60035;52.122;5.406;2023-04-10T06:43:46;101997.19;;;9.05;72.94
72157;BME280;60035;52.122;5.406;2023-04-10T06:46:13;101992.06;;;9.13;73.14
72157;BME280;60035;52.122;5.406;2023-04-10T06:48:41;101991.16;;;9.20;72.58
72157;BME280;60035;52.122;5.406;2023-04-10T06:51:07;101986.84;;;9.27;72.40
72157;BME280;60035;52.122;5.406;2023-04-10T06:53:34;101981.69;;;9.36;72.16
72157;BME280;60035;52.122;5.406;2023-04-10T06:56:01;101985.91;;;9.42;71.61
72157;BME280;60035;52.122;5.406;2023-04-10T06:58:29;101970.53;;;9.48;71.33
72157;BME280;60035;52.122;5.406;2023-04-10T07:00:55;101970.47;;;9.57;71.00
72157;BME280;60035;52.122;5.406;2023-04-10T07:03:23;101966.16;;;9.64;70.86
72157;BME280;60035;52.122;5.406;2023-04-10T07:05:49;101960.16;;;9.71;69.96
72157;BME280;60035;52.122;5.406;2023-04-10T07:08:16;101966.88;;;9.80;69.67
72157;BME280;60035;52.122;5.406;2023-04-10T07:10:42;101950.63;;;9.89;68.96
72157;BME280;60035;52.122;5.406;2023-04-10T07:13:09;101939.44;;;9.97;68.26
72157;BME280;60035;52.122;5.406;2023-04-10T07:15:35;101935.97;;;10.06;67.18
72157;BME280;60035;52.122;5.406;2023-04-10T07:18:02;101934.16;;;10.14;67.29
72157;BME280;60035;52.122;5.406;2023-04-10T07:20:29;101928.94;;;10.24;66.55
72157;BME280;60035;52.122;5.406;2023-04-10T07:22:55;101920.38;;;10.31;66.41
72157;BME280;60035;52.122;5.406;2023-04-10T07:25:22;101924.53;;;10.40;66.42
72157;BME280;60035;52.122;5.406;2023-04-10T07:27:48;101910.81;;;10.47;65.71
72157;BME280;60035;52.122;5.406;2023-04-10T07:30:15;101909.91;;;10.53;65.02
72157;BME280;60035;52.122;5.406;2023-04-10T07:32:41;101902.97;;;10.59;64.65
72157;BME280;60035;52.122;5.406;2023-04-10T07:35:08;101909.75;;;10.63;64.16
72157;BME280;60035;52.122;5.406;2023-04-10T07:37:35;101902.84;;;10.70;63.75
72157;BME280;60035;52.122;5.406;2023-04-10T07:40:01;101901.03;;;10.80;64.05
72157;BME280;60035;52.122;5.406;2023-04-10T07:42:28;101904.25;;;10.91;63.66
72157;BME280;60035;52.122;5.406;2023-04-10T07:44:58;101900.72;;;11.02;63.07
72157;BME280;60035;52.122;5.406;2023-04-10T07:47:24;101898.88;;;11.11;62.93
72157;BME280;60035;52.122;5.406;2023-04-10T07:49:51;101894.41;;;11.24;63.29
72157;BME280;60035;52.122;5.406;2023-04-10T07:52:17;101895.00;;;11.42;62.44
72157;BME280;60035;52.122;5.406;2023-04-10T07:54:44;101894.78;;;11.54;62.43
72157;BME280;60035;52.122;5.406;2023-04-10T07:57:10;101887.75;;;11.67;62.18
72157;BME280;60035;52.122;5.406;2023-04-10T07:59:37;101887.63;;;11.75;61.73
72157;BME280;60035;52.122;5.406;2023-04-10T08:02:03;101877.28;;;11.78;61.46
72157;BME280;60035;52.122;5.406;2023-04-10T08:04:30;101873.91;;;11.74;61.25
72157;BME280;60035;52.122;5.406;2023-04-10T08:06:57;101872.22;;;11.73;60.96
72157;BME280;60035;52.122;5.406;2023-04-10T08:09:23;101867.19;;;11.69;60.88
72157;BME280;60035;52.122;5.406;2023-04-10T08:11:50;101862.88;;;11.69;61.43
72157;BME280;60035;52.122;5.406;2023-04-10T08:14:16;101868.91;;;11.66;61.09
72157;BME280;60035;52.122;5.406;2023-04-10T08:16:44;101858.63;;;11.68;61.05
72157;BME280;60035;52.122;5.406;2023-04-10T08:19:10;101862.84;;;11.72;61.32
72157;BME280;60035;52.122;5.406;2023-04-10T08:21:37;101854.16;;;11.79;61.60
72157;BME280;60035;52.122;5.406;2023-04-10T08:24:03;101859.91;;;11.92;60.95
72157;BME280;60035;52.122;5.406;2023-04-10T08:26:30;101859.81;;;12.00;60.64
72157;BME280;60035;52.122;5.406;2023-04-10T08:28:58;101854.50;;;12.08;60.36
72157;BME280;60035;52.122;5.406;2023-04-10T08:31:27;101865.44;;;12.18;60.25
72157;BME280;60035;52.122;5.406;2023-04-10T08:33:54;101841.41;;;12.22;59.34
72157;BME280;60035;52.122;5.406;2023-04-10T08:36:21;101842.16;;;12.27;59.98
72157;BME280;60035;52.122;5.406;2023-04-10T08:38:47;101829.22;;;12.31;59.95
72157;BME280;60035;52.122;5.406;2023-04-10T08:41:18;101834.22;;;12.38;59.54
72157;BME280;60035;52.122;5.406;2023-04-10T08:43:45;101826.44;;;12.41;59.45
72157;BME280;60035;52.122;5.406;2023-04-10T08:46:12;101826.31;;;12.47;59.85
72157;BME280;60035;52.122;5.406;2023-04-10T08:48:51;101835.63;;;12.53;60.07
72157;BME280;60035;52.122;5.406;2023-04-10T08:51:19;101816.84;;;12.50;59.55
72157;BME280;60035;52.122;5.406;2023-04-10T08:53:54;101824.63;;;12.46;59.45
72157;BME280;60035;52.122;5.406;2023-04-10T08:56:22;101811.81;;;12.44;59.40
72157;BME280;60035;52.122;5.406;2023-04-10T08:58:50;101828.94;;;12.45;59.95
72157;BME280;60035;52.122;5.406;2023-04-10T09:01:18;101816.78;;;12.52;59.71
72157;BME280;60035;52.122;5.406;2023-04-10T09:03:46;101821.09;;;12.52;59.69
72157;BME280;60035;52.122;5.406;2023-04-10T09:06:13;101819.44;;;12.49;59.46
72157;BME280;60035;52.122;5.406;2023-04-10T09:08:39;101807.44;;;12.49;59.28
72157;BME280;60035;52.122;5.406;2023-04-10T09:11:06;101806.59;;;12.49;59.03
72157;BME280;60035;52.122;5.406;2023-04-10T09:13:40;101798.88;;;12.49;59.28
72157;BME280;60035;52.122;5.406;2023-04-10T09:16:07;101798.84;;;12.50;59.58
72157;BME280;60035;52.122;5.406;2023-04-10T09:21:09;101781.66;;;12.53;59.17
72157;BME280;60035;52.122;5.406;2023-04-10T09:23:36;101784.34;;;12.48;59.10
72157;BME280;60035;52.122;5.406;2023-04-10T09:26:28;101776.59;;;12.49;59.68
72157;BME280;60035;52.122;5.406;2023-04-10T09:29:00;101775.69;;;12.52;59.83
72157;BME280;60035;52.122;5.406;2023-04-10T09:31:37;101773.00;;;12.57;59.54
72157;BME280;60035;52.122;5.406;2023-04-10T09:34:13;101764.38;;;12.61;59.80
72157;BME280;60035;52.122;5.406;2023-04-10T09:36:42;101761.81;;;12.59;59.51
72157;BME280;60035;52.122;5.406;2023-04-10T09:39:10;101756.50;;;12.67;59.77
72157;BME280;60035;52.122;5.406;2023-04-10T09:41:46;101749.47;;;12.74;59.52
72157;BME280;60035;52.122;5.406;2023-04-10T09:44:17;101741.53;;;12.85;60.15
72157;BME280;60035;52.122;5.406;2023-04-10T09:46:45;101739.72;;;12.88;59.54
72157;BME280;60035;52.122;5.406;2023-04-10T09:49:12;101732.75;;;12.93;59.40
72157;BME280;60035;52.122;5.406;2023-04-10T09:51:38;101730.06;;;12.96;59.36
72157;BME280;60035;52.122;5.406;2023-04-10T09:54:05;101723.88;;;13.05;59.14
72157;BME280;60035;52.122;5.406;2023-04-10T09:56:35;101724.66;;;13.09;59.00
72157;BME280;60035;52.122;5.406;2023-04-10T09:59:05;101717.53;;;13.19;58.75
72157;BME280;60035;52.122;5.406;2023-04-10T10:01:32;101714.75;;;13.26;58.37
72157;BME280;60035;52.122;5.406;2023-04-10T10:04:03;101711.97;;;13.34;58.19
72157;BME280;60035;52.122;5.406;2023-04-10T10:06:31;101710.94;;;13.43;58.01
72157;BME280;60035;52.122;5.406;2023-04-10T10:09:02;101704.72;;;13.50;58.03
72157;BME280;60035;52.122;5.406;2023-04-10T10:11:33;101710.38;;;13.63;57.47
72157;BME280;60035;52.122;5.406;2023-04-10T10:14:12;101707.59;;;13.69;57.57
72157;BME280;60035;52.122;5.406;2023-04-10T10:16:47;101703.00;;;13.80;57.39
72157;BME280;60035;52.122;5.406;2023-04-10T10:19:16;101692.47;;;13.88;57.27
72157;BME280;60035;52.122;5.406;2023-04-10T10:21:43;101689.47;;;14.02;57.16
72157;BME280;60035;52.122;5.406;2023-04-10T10:24:12;101691.75;;;14.11;56.87
72157;BME280;60035;52.122;5.406;2023-04-10T10:26:39;101683.72;;;14.22;57.07
72157;BME280;60035;52.122;5.406;2023-04-10T10:29:07;101665.59;;;14.25;55.99
72157;BME280;60035;52.122;5.406;2023-04-10T10:31:38;101663.78;;;14.27;56.58
72157;BME280;60035;52.122;5.406;2023-04-10T10:34:05;101656.50;;;14.40;56.42
72157;BME280;60035;52.122;5.406;2023-04-10T10:36:34;101657.31;;;14.42;55.77
72157;BME280;60035;52.122;5.406;2023-04-10T10:42:22;101642.44;;;14.50;55.19
72157;BME280;60035;52.122;5.406;2023-04-10T10:45:11;101635.22;;;14.60;54.60
72157;BME280;60035;52.122;5.406;2023-04-10T10:47:48;101638.63;;;14.62;55.04
72157;BME280;60035;52.122;5.406;2023-04-10T10:50:16;101631.50;;;14.71;54.84
72157;BME280;60035;52.122;5.406;2023-04-10T10:52:47;101626.34;;;14.71;54.33
72157;BME280;60035;52.122;5.406;2023-04-10T10:58:07;101615.78;;;15.02;54.48
72157;BME280;60035;52.122;5.406;2023-04-10T11:11:00;101586.09;;;15.61;52.70
72157;BME280;60035;52.122;5.406;2023-04-10T11:13:29;101582.94;;;15.75;52.29
72157;BME280;60035;52.122;5.406;2023-04-10T11:15:56;101569.63;;;15.86;52.05
72157;BME280;60035;52.122;5.406;2023-04-10T11:21:13;101564.84;;;16.20;51.99
72157;BME280;60035;52.122;5.406;2023-04-10T11:31:47;101543.06;;;16.05;51.70
72157;BME280;60035;52.122;5.406;2023-04-10T11:34:20;101547.66;;;16.19;52.23
72157;BME280;60035;52.122;5.406;2023-04-10T11:36:47;101545.41;;;16.31;51.85
72157;BME280;60035;52.122;5.406;2023-04-10T11:39:14;101542.75;;;16.33;51.25
72157;BME280;60035;52.122;5.406;2023-04-10T11:41:51;101529.91;;;16.31;51.97
72157;BME280;60035;52.122;5.406;2023-04-10T11:44:32;101519.09;;;16.42;51.35
72157;BME280;60035;52.122;5.406;2023-04-10T11:47:02;101517.78;;;16.53;51.52
72157;BME280;60035;52.122;5.406;2023-04-10T11:49:32;101516.75;;;16.57;51.04
72157;BME280;60035;52.122;5.406;2023-04-10T11:52:00;101508.03;;;16.59;50.59
72157;BME280;60035;52.122;5.406;2023-04-10T11:54:28;101520.81;;;16.62;50.74
72157;BME280;60035;52.122;5.406;2023-04-10T11:57:01;101513.03;;;16.62;51.04
72157;BME280;60035;52.122;5.406;2023-04-10T11:59:30;101509.50;;;16.65;51.23
72157;BME280;60035;52.122;5.406;2023-04-10T12:02:09;101516.19;;;16.69;51.10
72157;BME280;60035;52.122;5.406;2023-04-10T12:04:37;101503.56;;;16.82;51.39
72157;BME280;60035;52.122;5.406;2023-04-10T12:07:03;101501.88;;;16.81;51.06
72157;BME280;60035;52.122;5.406;2023-04-10T12:09:30;101488.75;;;16.86;50.71
72157;BME280;60035;52.122;5.406;2023-04-10T12:12:00;101488.81;;;16.84;50.80
72157;BME280;60035;52.122;5.406;2023-04-10T12:14:33;101478.78;;;16.97;50.89
72157;BME280;60035;52.122;5.406;2023-04-10T12:17:01;101467.72;;;17.12;50.96
72157;BME280;60035;52.122;5.406;2023-04-10T12:19:28;101467.00;;;17.09;50.84
72157;BME280;60035;52.122;5.406;2023-04-10T12:21:57;101460.03;;;17.11;50.76
72157;BME280;60035;52.122;5.406;2023-04-10T12:24:43;101467.78;;;17.11;51.22
72157;BME280;60035;52.122;5.406;2023-04-10T12:29:44;101449.22;;;17.03;50.37
72157;BME280;60035;52.122;5.406;2023-04-10T12:32:10;101448.69;;;16.94;50.64
72157;BME280;60035;52.122;5.406;2023-04-10T12:34:37;101441.91;;;16.92;50.79
72157;BME280;60035;52.122;5.406;2023-04-10T12:37:04;101428.25;;;16.90;50.94
72157;BME280;60035;52.122;5.406;2023-04-10T12:39:31;101426.59;;;16.87;50.78
72157;BME280;60035;52.122;5.406;2023-04-10T12:42:12;101424.13;;;16.84;50.51
72157;BME280;60035;52.122;5.406;2023-04-10T12:44:54;101414.91;;;16.78;50.40
72157;BME280;60035;52.122;5.406;2023-04-10T12:47:22;101405.78;;;16.71;50.76
72157;BME280;60035;52.122;5.406;2023-04-10T12:50:09;101406.06;;;16.65;51.35
72157;BME280;60035;52.122;5.406;2023-04-10T12:52:39;101398.53;;;16.60;51.17
72157;BME280;60035;52.122;5.406;2023-04-10T12:55:16;101387.91;;;16.47;51.18
72157;BME280;60035;52.122;5.406;2023-04-10T12:57:44;101395.19;;;16.39;51.28
72157;BME280;60035;52.122;5.406;2023-04-10T13:00:20;101391.09;;;16.33;51.77
72157;BME280;60035;52.122;5.406;2023-04-10T13:02:47;101377.69;;;16.25;51.66
72157;BME280;60035;52.122;5.406;2023-04-10T13:05:14;101371.97;;;16.19;51.73
72157;BME280;60035;52.122;5.406;2023-04-10T13:07:41;101372.16;;;16.14;52.12
72157;BME280;60035;52.122;5.406;2023-04-10T13:10:08;101357.69;;;16.10;52.07
72157;BME280;60035;52.122;5.406;2023-04-10T13:12:35;101348.41;;;16.06;52.15
72157;BME280;60035;52.122;5.406;2023-04-10T13:15:03;101344.28;;;16.02;52.11
72157;BME280;60035;52.122;5.406;2023-04-10T13:17:30;101344.44;;;15.98;52.44
72157;BME280;60035;52.122;5.406;2023-04-10T13:19:56;101343.72;;;15.95;52.35
72157;BME280;60035;52.122;5.406;2023-04-10T13:22:23;101347.19;;;15.94;52.45
72157;BME280;60035;52.122;5.406;2023-04-10T13:24:49;101345.56;;;15.93;52.30
72157;BME280;60035;52.122;5.406;2023-04-10T13:27:16;101333.59;;;15.90;52.38
72157;BME280;60035;52.122;5.406;2023-04-10T13:29:42;101342.25;;;15.89;52.90
72157;BME280;60035;52.122;5.406;2023-04-10T13:32:09;101338.56;;;15.95;53.28
72157;BME280;60035;52.122;5.406;2023-04-10T13:34:36;101332.22;;;16.02;53.68
72157;BME280;60035;52.122;5.406;2023-04-10T13:37:02;101326.28;;;16.00;54.50
72157;BME280;60035;52.122;5.406;2023-04-10T13:39:29;101315.47;;;15.92;54.99
72157;BME280;60035;52.122;5.406;2023-04-10T13:41:57;101309.00;;;15.81;56.21
72157;BME280;60035;52.122;5.406;2023-04-10T13:44:24;101307.63;;;15.73;57.26
72157;BME280;60035;52.122;5.406;2023-04-10T13:46:50;101296.16;;;15.59;58.09
72157;BME280;60035;52.122;5.406;2023-04-10T13:49:17;101300.03;;;15.49;58.71